createdAt,value
2019-01-09T00:02:55.376Z,17.80
2019-01-09T00:05:51.713Z,17.80
2019-01-09T00:08:47.628Z,17.80
2019-01-09T00:11:44.081Z,17.80
2019-01-09T00:14:43.792Z,17.80
2019-01-09T00:17:40.019Z,17.80
2019-01-09T00:20:38.080Z,17.80
2019-01-09T00:23:33.833Z,17.70
2019-01-09T00:26:29.960Z,17.70
2019-01-09T00:29:44.512Z,17.80
2019-01-09T00:32:41.966Z,17.80
2019-01-09T00:35:38.817Z,17.70
2019-01-09T00:38:35.439Z,17.70
2019-01-09T00:41:32.821Z,17.70
2019-01-09T00:44:31.553Z,17.70
2019-01-09T00:47:27.825Z,17.70
2019-01-09T00:50:27.252Z,17.60
2019-01-09T00:53:24.064Z,17.60
2019-01-09T00:56:22.960Z,17.60
2019-01-09T00:59:17.270Z,17.60
2019-01-09T01:02:58.453Z,17.60
2019-01-09T01:06:53.650Z,17.60
2019-01-09T01:10:32.808Z,17.60
2019-01-09T01:14:04.391Z,17.60
2019-01-09T01:17:44.575Z,17.50
2019-01-09T01:21:07.689Z,17.50
2019-01-09T01:24:43.248Z,17.50
2019-01-09T01:28:02.143Z,17.50
2019-01-09T01:31:23.117Z,17.50
2019-01-09T01:34:37.427Z,17.50
2019-01-09T01:37:53.319Z,17.50
2019-01-09T01:41:39.863Z,17.50
2019-01-09T01:45:10.955Z,17.50
2019-01-09T01:48:32.772Z,17.50
2019-01-09T01:51:56.639Z,17.50
2019-01-09T01:55:26.696Z,17.50
2019-01-09T01:58:59.104Z,17.50
2019-01-09T02:02:39.886Z,17.50
2019-01-09T02:06:19.261Z,17.50
2019-01-09T02:09:52.057Z,17.50
2019-01-09T02:13:11.390Z,17.40
2019-01-09T02:16:26.414Z,17.40
2019-01-09T02:19:53.359Z,17.40
2019-01-09T02:23:31.153Z,17.40
2019-01-09T02:27:28.147Z,17.40
2019-01-09T02:31:14.825Z,17.40
2019-01-09T02:34:11.408Z,17.40
2019-01-09T02:37:08.752Z,17.40
2019-01-09T02:40:07.211Z,17.40
2019-01-09T02:43:03.522Z,17.40
2019-01-09T02:46:00.198Z,17.50
2019-01-09T02:48:56.761Z,17.40
2019-01-09T02:51:53.240Z,17.50
2019-01-09T02:54:49.762Z,17.50
2019-01-09T02:57:56.282Z,17.50
2019-01-09T03:00:43.582Z,17.50
2019-01-09T03:03:40.431Z,17.50
2019-01-09T03:06:36.766Z,17.60
2019-01-09T03:09:33.124Z,17.60
2019-01-09T03:12:30.374Z,17.60
2019-01-09T03:15:27.140Z,17.70
2019-01-09T03:18:24.054Z,17.70
2019-01-09T03:21:22.382Z,17.80
2019-01-09T03:24:18.938Z,17.80
2019-01-09T03:27:15.307Z,17.90
2019-01-09T03:30:11.713Z,17.90
2019-01-09T03:33:08.288Z,17.90
2019-01-09T03:36:05.232Z,18.00
2019-01-09T03:39:01.160Z,18.00
2019-01-09T03:42:01.228Z,18.10
2019-01-09T03:44:58.442Z,18.10
2019-01-09T03:48:03.691Z,18.20
2019-01-09T03:50:59.503Z,18.30
2019-01-09T03:53:56.451Z,18.30
2019-01-09T03:56:52.870Z,18.40
2019-01-09T03:59:49.091Z,18.50
2019-01-09T04:02:48.420Z,18.60
2019-01-09T04:05:45.257Z,18.60
2019-01-09T04:08:42.009Z,18.70
2019-01-09T04:11:39.569Z,18.80
2019-01-09T04:14:40.711Z,18.80
2019-01-09T04:17:37.454Z,18.90
2019-01-09T04:20:34.208Z,19.00
2019-01-09T04:23:30.948Z,19.10
2019-01-09T04:26:27.385Z,19.20
2019-01-09T04:29:23.815Z,19.20
2019-01-09T04:32:20.785Z,19.30
2019-01-09T04:35:17.813Z,19.40
2019-01-09T04:38:14.055Z,19.50
2019-01-09T04:41:13.350Z,19.60
2019-01-09T04:44:12.968Z,19.70
2019-01-09T04:47:09.206Z,19.80
2019-01-09T04:50:05.944Z,19.80
2019-01-09T04:53:07.832Z,19.90
2019-01-09T04:56:04.135Z,20.00
2019-01-09T04:59:00.579Z,20.00
2019-01-09T05:01:56.915Z,20.10
2019-01-09T05:04:56.009Z,20.20
2019-01-09T05:07:56.251Z,20.30
2019-01-09T05:10:53.286Z,20.30
2019-01-09T05:13:58.334Z,20.40
2019-01-09T05:16:59.249Z,20.50
2019-01-09T05:20:16.470Z,20.50
2019-01-09T05:27:00.880Z,20.70
2019-01-09T05:29:58.793Z,20.80
2019-01-09T05:33:06.557Z,20.90
2019-01-09T05:36:10.078Z,21.00
2019-01-09T05:42:45.043Z,21.20
2019-01-09T05:45:48.374Z,21.30
2019-01-09T05:48:47.663Z,21.40
2019-01-09T05:51:47.269Z,21.40
2019-01-09T05:54:45.536Z,21.50
2019-01-09T05:58:03.833Z,21.60
2019-01-09T06:01:12.457Z,21.60
2019-01-09T06:04:14.575Z,21.70
2019-01-09T06:07:18.346Z,21.70
2019-01-09T06:10:15.499Z,21.80
2019-01-09T06:17:51.918Z,21.90
2019-01-09T06:21:46.996Z,22.00
2019-01-09T06:35:11.246Z,22.10
2019-01-09T06:47:11.637Z,22.40
2019-01-09T06:49:50.089Z,22.40
2019-01-09T06:53:00.915Z,22.50
2019-01-09T06:55:59.325Z,22.50
2019-01-09T06:58:55.867Z,22.60
2019-01-09T07:01:55.886Z,22.70
2019-01-09T07:04:59.517Z,22.80
2019-01-09T07:08:02.700Z,22.90
2019-01-09T07:22:42.899Z,23.30
2019-01-09T07:26:20.404Z,23.40
2019-01-09T07:30:06.847Z,23.60
2019-01-09T07:33:10.641Z,23.80
2019-01-09T07:36:10.495Z,24.00
2019-01-09T07:39:09.327Z,24.20
2019-01-09T07:46:07.922Z,24.40
2019-01-09T07:52:38.566Z,24.50
2019-01-09T07:56:03.687Z,24.40
2019-01-09T07:59:42.029Z,24.40
2019-01-09T08:09:59.512Z,24.40
2019-01-09T08:26:02.672Z,24.70
2019-01-09T08:49:07.200Z,24.70
2019-01-09T08:55:55.074Z,25.50
2019-01-09T08:58:58.380Z,25.40
2019-01-09T09:01:55.376Z,25.30
2019-01-09T09:04:57.795Z,25.20
2019-01-09T09:07:59.663Z,25.20
2019-01-09T09:11:15.455Z,25.20
2019-01-09T09:14:31.790Z,25.20
2019-01-09T09:17:31.999Z,25.20
2019-01-09T09:20:29.243Z,25.20
2019-01-09T09:23:28.539Z,25.20
2019-01-09T09:26:28.158Z,25.20
2019-01-09T09:29:27.709Z,25.30
2019-01-09T09:32:29.932Z,25.30
2019-01-09T09:35:35.874Z,25.30
2019-01-09T09:38:36.337Z,25.40
2019-01-09T09:41:33.139Z,25.40
2019-01-09T09:44:31.527Z,25.50
2019-01-09T09:47:31.256Z,25.50
2019-01-09T09:50:39.710Z,25.50
2019-01-09T09:53:41.231Z,25.50
2019-01-09T09:56:52.863Z,25.60
2019-01-09T09:59:52.315Z,25.50
2019-01-09T10:03:05.778Z,25.50
2019-01-09T10:05:52.458Z,25.50
2019-01-09T10:08:54.313Z,25.50
2019-01-09T10:12:00.617Z,25.40
2019-01-09T10:15:04.315Z,25.40
2019-01-09T10:18:04.906Z,25.30
2019-01-09T10:21:41.836Z,25.30
2019-01-09T10:24:53.188Z,25.20
2019-01-09T10:28:00.187Z,25.20
2019-01-09T10:31:19.783Z,25.10
2019-01-09T10:34:44.904Z,25.10
2019-01-09T10:37:48.690Z,25.00
2019-01-09T11:28:50.549Z,24.90
2019-01-09T11:31:49.627Z,25.20
2019-01-09T11:34:45.641Z,25.00
2019-01-09T11:37:42.101Z,24.90
2019-01-09T11:40:38.462Z,24.70
2019-01-09T11:43:35.765Z,24.60
2019-01-09T11:46:37.501Z,24.50
2019-01-09T11:49:34.092Z,24.40
2019-01-09T11:52:37.656Z,24.30
2019-01-09T11:55:44.833Z,24.20
2019-01-09T11:58:45.424Z,24.10
2019-01-09T12:01:41.650Z,24.00
2019-01-09T12:04:53.365Z,23.90
2019-01-09T12:07:50.322Z,23.80
2019-01-09T12:10:46.541Z,23.70
2019-01-09T12:13:55.152Z,23.70
2019-01-09T12:16:49.636Z,23.60
2019-01-09T12:19:47.088Z,23.50
2019-01-09T12:23:16.425Z,23.40
2019-01-09T12:26:21.344Z,23.30
2019-01-09T12:29:18.391Z,23.20
2019-01-09T12:32:19.203Z,23.10
2019-01-09T12:35:18.635Z,23.10
2019-01-09T12:38:16.315Z,23.00
2019-01-09T12:41:12.437Z,22.90
2019-01-09T12:44:09.167Z,22.90
2019-01-09T12:47:11.164Z,22.80
2019-01-09T12:50:11.488Z,22.80
2019-01-09T12:53:08.813Z,22.70
2019-01-09T12:56:05.202Z,22.60
2019-01-09T12:59:01.776Z,22.60
2019-01-09T13:01:58.262Z,22.50
2019-01-09T13:04:54.561Z,22.50
2019-01-09T13:07:51.416Z,22.40
2019-01-09T13:10:48.063Z,22.40
2019-01-09T13:13:47.614Z,22.40
2019-01-09T13:16:55.555Z,22.30
2019-01-09T13:19:46.013Z,22.30
2019-01-09T13:22:43.221Z,22.20
2019-01-09T13:25:40.508Z,22.20
2019-01-09T13:28:48.916Z,22.20
2019-01-09T13:31:59.495Z,22.20
2019-01-09T13:34:59.084Z,22.10
2019-01-09T13:37:56.031Z,22.10
2019-01-09T13:40:52.680Z,22.00
2019-01-09T13:43:52.274Z,22.00
2019-01-09T13:46:49.840Z,22.00
2019-01-09T13:49:46.900Z,22.00
2019-01-09T13:52:44.172Z,21.90
2019-01-09T13:55:40.886Z,21.90
2019-01-09T13:58:37.526Z,21.80
2019-01-09T14:01:34.308Z,21.80
2019-01-09T14:04:34.841Z,21.80
2019-01-09T14:07:31.958Z,21.70
2019-01-09T14:10:30.977Z,21.70
2019-01-09T14:13:27.793Z,21.70
2019-01-09T14:16:24.156Z,21.70
2019-01-09T14:19:20.675Z,21.70
2019-01-09T14:22:20.385Z,21.60
2019-01-09T14:25:23.176Z,21.60
2019-01-09T14:28:19.799Z,21.60
2019-01-09T14:31:16.250Z,21.60
2019-01-09T14:34:12.218Z,21.60
2019-01-09T14:37:07.970Z,21.50
2019-01-09T14:40:04.126Z,21.50
2019-01-09T14:43:00.461Z,21.50
2019-01-09T14:45:56.692Z,21.50
2019-01-09T14:48:52.698Z,21.50
2019-01-09T14:51:49.139Z,21.50
2019-01-09T14:54:45.103Z,21.50
2019-01-09T14:57:41.192Z,21.50
2019-01-09T15:00:37.951Z,21.50
2019-01-09T15:03:34.711Z,21.50
2019-01-09T15:06:30.619Z,21.40
2019-01-09T15:09:26.430Z,21.40
2019-01-09T15:12:23.186Z,21.40
2019-01-09T15:15:22.472Z,21.40
2019-01-09T15:18:18.519Z,21.30
2019-01-09T15:21:14.637Z,21.30
2019-01-09T15:24:10.883Z,21.30
2019-01-09T15:27:07.626Z,21.30
2019-01-09T15:30:03.957Z,21.20
2019-01-09T15:33:00.708Z,21.20
2019-01-09T15:35:57.438Z,21.20
2019-01-09T15:38:53.527Z,21.20
2019-01-09T15:41:52.671Z,21.20
2019-01-09T15:44:48.799Z,21.10
2019-01-09T15:47:44.927Z,21.10
2019-01-09T15:50:52.738Z,21.10
2019-01-09T15:53:49.067Z,21.10
2019-01-09T15:56:49.084Z,21.10
2019-01-09T15:59:45.836Z,21.00
2019-01-09T16:02:41.838Z,21.00
2019-01-09T16:05:38.294Z,21.00
2019-01-09T16:08:37.607Z,21.00
2019-01-09T16:11:34.157Z,21.00
2019-01-09T16:14:30.884Z,21.00
2019-01-09T16:17:27.005Z,21.00
2019-01-09T16:20:24.104Z,20.90
2019-01-09T16:23:20.399Z,20.90
2019-01-09T16:26:17.223Z,20.90
2019-01-09T16:29:13.995Z,20.90
2019-01-09T16:32:11.239Z,20.90
2019-01-09T16:35:08.783Z,20.80
2019-01-09T16:38:05.033Z,20.80
2019-01-09T16:41:01.012Z,20.80
2019-01-09T16:43:56.752Z,20.80
2019-01-09T16:46:53.110Z,20.70
2019-01-09T16:49:49.351Z,20.70
2019-01-09T16:52:45.305Z,20.70
2019-01-09T16:55:50.751Z,20.70
2019-01-09T16:58:46.544Z,20.60
2019-01-09T17:01:42.926Z,20.60
2019-01-09T17:04:42.933Z,20.60
2019-01-09T17:07:38.898Z,20.60
2019-01-09T17:10:35.976Z,20.50
2019-01-09T17:13:36.451Z,20.50
2019-01-09T17:16:29.130Z,20.50
2019-01-09T17:19:25.698Z,20.50
2019-01-09T17:22:21.720Z,20.50
2019-01-09T17:25:18.670Z,20.40
2019-01-09T17:28:15.410Z,20.40
2019-01-09T17:31:12.055Z,20.40
2019-01-09T17:34:12.354Z,20.40
2019-01-09T17:37:05.232Z,20.40
2019-01-09T17:40:01.972Z,20.40
2019-01-09T17:42:58.329Z,20.40
2019-01-09T17:45:54.041Z,20.30
2019-01-09T17:48:50.270Z,20.30
2019-01-09T17:51:48.728Z,20.30
2019-01-09T17:54:44.671Z,20.20
2019-01-09T17:57:43.358Z,20.20
2019-01-09T18:00:41.843Z,20.20
2019-01-09T18:03:37.739Z,20.20
2019-01-09T18:06:34.502Z,20.20
2019-01-09T18:09:30.638Z,20.10
2019-01-09T18:12:37.557Z,20.10
2019-01-09T18:15:34.162Z,20.10
2019-01-09T18:18:30.699Z,20.10
2019-01-09T18:21:28.162Z,20.00
2019-01-09T18:24:24.904Z,20.00
2019-01-09T18:27:21.648Z,20.00
2019-01-09T18:30:33.430Z,20.00
2019-01-09T18:34:01.896Z,20.00
2019-01-09T18:37:24.283Z,20.00
2019-01-09T18:40:59.433Z,20.00
2019-01-09T18:44:19.106Z,19.90
2019-01-09T18:48:12.461Z,19.90
2019-01-09T18:51:34.688Z,19.90
2019-01-09T18:54:31.474Z,19.90
2019-01-09T18:57:31.072Z,19.90
2019-01-09T19:00:26.898Z,19.80
2019-01-09T19:03:23.228Z,19.80
2019-01-09T19:06:20.592Z,19.90
2019-01-09T19:09:17.534Z,19.80
2019-01-09T19:12:14.069Z,19.80
2019-01-09T19:15:11.018Z,19.80
2019-01-09T19:18:07.762Z,19.80
2019-01-09T19:21:05.119Z,19.80
2019-01-09T19:24:04.726Z,19.80
2019-01-09T19:27:00.966Z,19.70
2019-01-09T19:30:01.295Z,19.70
2019-01-09T19:32:57.516Z,19.70
2019-01-09T19:35:54.047Z,19.70
2019-01-09T19:38:50.599Z,19.70
2019-01-09T19:41:50.729Z,19.70
2019-01-09T19:44:43.477Z,19.70
2019-01-09T19:47:40.014Z,19.70
2019-01-09T19:50:42.476Z,19.60
2019-01-09T19:53:37.890Z,19.60
2019-01-09T19:56:34.141Z,19.60
2019-01-09T19:59:30.255Z,19.60
2019-01-09T20:02:35.201Z,19.60
2019-01-09T20:05:31.123Z,19.60
2019-01-09T20:08:27.482Z,19.60
2019-01-09T20:11:26.557Z,19.60
2019-01-09T20:14:23.012Z,19.50
2019-01-09T20:17:19.527Z,19.50
2019-01-09T20:20:18.247Z,19.50
2019-01-09T20:23:21.341Z,19.50
2019-01-09T20:26:14.725Z,19.50
2019-01-09T20:29:11.517Z,19.40
2019-01-09T20:32:08.474Z,19.40
2019-01-09T20:35:05.327Z,19.40
2019-01-09T20:38:01.957Z,19.40
2019-01-09T20:40:58.397Z,19.40
2019-01-09T20:43:54.750Z,19.30
2019-01-09T20:46:56.664Z,19.30
2019-01-09T20:49:53.139Z,19.30
2019-01-09T20:52:52.568Z,19.30
2019-01-09T20:55:52.054Z,19.20
2019-01-09T20:58:48.349Z,19.20
2019-01-09T21:01:47.173Z,19.20
2019-01-09T21:04:46.797Z,19.20
2019-01-09T21:07:39.651Z,19.20
2019-01-09T21:10:36.587Z,19.20
2019-01-09T21:13:32.277Z,19.10
2019-01-09T21:16:28.332Z,19.10
2019-01-09T21:19:26.687Z,19.10
2019-01-09T21:22:23.139Z,19.00
2019-01-09T21:25:19.879Z,19.00
2019-01-09T21:28:16.333Z,19.00
2019-01-09T21:31:12.977Z,19.00
2019-01-09T21:34:09.621Z,19.00
2019-01-09T21:37:05.864Z,18.90
2019-01-09T21:40:02.285Z,18.90
2019-01-09T21:43:01.488Z,18.90
2019-01-09T21:45:57.927Z,18.90
2019-01-09T21:48:57.757Z,18.80
2019-01-09T21:51:51.098Z,18.80
2019-01-09T21:54:47.220Z,18.80
2019-01-09T21:57:43.459Z,18.80
2019-01-09T22:00:40.295Z,18.70
2019-01-09T22:03:36.538Z,18.70
2019-01-09T22:06:32.874Z,18.70
2019-01-09T22:09:29.195Z,18.70
2019-01-09T22:12:25.787Z,18.60
2019-01-09T22:15:24.437Z,18.60
2019-01-09T22:18:23.224Z,18.60
2019-01-09T22:21:19.447Z,18.60
2019-01-09T22:24:15.482Z,18.60
2019-01-09T22:27:11.410Z,18.50
2019-01-09T22:30:08.145Z,18.50
2019-01-09T22:33:04.487Z,18.50
2019-01-09T22:36:00.616Z,18.50
2019-01-09T22:38:56.436Z,18.50
2019-01-09T22:41:52.667Z,18.50
2019-01-09T22:44:50.655Z,18.50
2019-01-09T22:47:46.960Z,18.40
2019-01-09T22:50:43.407Z,18.40
2019-01-09T22:53:40.976Z,18.40
2019-01-09T22:56:37.822Z,18.40
2019-01-09T22:59:34.260Z,18.40
2019-01-09T23:02:34.884Z,18.40
2019-01-09T23:05:31.334Z,18.40
2019-01-09T23:08:30.836Z,18.40
2019-01-09T23:11:27.069Z,18.40
2019-01-09T23:14:23.463Z,18.40
2019-01-09T23:17:19.839Z,18.40
2019-01-09T23:20:20.477Z,18.30
2019-01-09T23:23:16.442Z,18.30
2019-01-09T23:26:13.154Z,18.30
2019-01-09T23:29:09.281Z,18.30
2019-01-09T23:32:05.793Z,18.30
2019-01-09T23:35:01.836Z,18.30
2019-01-09T23:37:58.379Z,18.20
2019-01-09T23:40:54.713Z,18.20
2019-01-09T23:43:51.044Z,18.20
2019-01-09T23:46:46.867Z,18.20
2019-01-09T23:49:42.799Z,18.10
2019-01-09T23:52:39.946Z,18.10
2019-01-09T23:55:36.176Z,18.10
2019-01-09T23:58:35.164Z,18.10
